Puropanmaru No.3 — JD3322 — position and weather

sailwx.info

Track history (hours):
 
Tides and Currents Weather Stations Pressure Air Temp Water Temp Dewpoint Dewpoint Depression Visibility Wind Speed Wind Dir Waves Ship Positions

Puropanmaru No.3

Last reported at 2017-Nov-19 08:51 UTC. Time now 2017-Nov-21 19:23 UTC.
Position N 35°01' E 139°28'.

Length 68 m; draft 4.5 m.

Type: Tanker. MMSI: 431003365.

Date/timePositionNaut miles runAvg speedWind from/ knotsBaromVisibWave heightAir tempDewpointWater temp
2017-Nov-19 08:51N 35°01' E 139°28'411.8
2017-Nov-19 08:30N 35°03' E 139°32'612.2
2017-Nov-19 08:00N 35°06' E 139°39'612.3
2017-Nov-19 07:30N 35°10' E 139°44'612.2
2017-Nov-19 07:00N 35°16' E 139°46'612.2
2017-Nov-19 06:30N 35°22' E 139°42'611.5
2017-Nov-19 06:00N 35°26' E 139°46'612.9
2017-Nov-19 05:30N 35°30' E 139°53'7 1.3
2017-Nov-18 23:58N 35°32' E 140°01'510.8
2017-Nov-18 23:30N 35°29' E 139°56'1 2.8
2017-Nov-18 23:00N 35°28' E 139°55'0 0.0
2017-Nov-18 21:53N 35°28' E 139°55'0 0.0
2017-Nov-18 21:23N 35°28' E 139°55'0 0.0
2017-Nov-18 21:00N 35°28' E 139°55'0 0.1
2017-Nov-18 20:30N 35°28' E 139°55'0 0.1
2017-Nov-18 19:56N 35°28' E 139°55'0 0.1
2017-Nov-18 19:30N 35°28' E 139°55'0 0.0
2017-Nov-18 19:00N 35°28' E 139°55'0 0.0
2017-Nov-18 18:29N 35°28' E 139°55'0 0.0
2017-Nov-18 17:59N 35°28' E 139°55'0 0.0
2017-Nov-18 17:27N 35°28' E 139°55'0 0.0
2017-Nov-18 16:59N 35°28' E 139°55'0 0.0
2017-Nov-18 16:29N 35°28' E 139°55'0 0.0
2017-Nov-18 15:56N 35°28' E 139°55'0 0.0
2017-Nov-18 15:26N 35°28' E 139°55'0 0.0
2017-Nov-18 14:59N 35°28' E 139°55'0 0.0
2017-Nov-18 14:23N 35°28' E 139°55'0 0.0
2017-Nov-18 13:56N 35°28' E 139°55'0 0.2
2017-Nov-18 13:26N 35°28' E 139°55'0 0.0
2017-Nov-18 12:20N 35°28' E 139°55'0 0.0
2017-Nov-18 11:56N 35°28' E 139°55'0 0.0
2017-Nov-18 11:29N 35°28' E 139°55'0 0.0
2017-Nov-18 10:56N 35°28' E 139°55'0 0.0
2017-Nov-18 10:29N 35°28' E 139°55'0 0.0
2017-Nov-18 09:59N 35°28' E 139°55'0 0.0
2017-Nov-18 09:20N 35°28' E 139°55'0 0.0
2017-Nov-18 08:45N 35°28' E 139°55'2 8.5
2017-Nov-18 08:27N 35°28' E 139°52'613.3
2017-Nov-18 08:00N 35°24' E 139°46'612.5
2017-Nov-18 07:30N 35°18' E 139°45'612.5
2017-Nov-18 07:00N 35°12' E 139°47'713.0
2017-Nov-18 06:30N 35°06' E 139°43'612.9
2017-Nov-18 06:00N 35°02' E 139°37'713.4
2017-Nov-18 05:30N 34°58' E 139°31'222 5.2
2017-Nov-16 10:36N 34°37' E 135°01'215.6
2017-Nov-16 10:29N 34°36' E 135°03'21 0.7
2017-Nov-15 06:07N 34°15' E 134°59'111.8
2017-Nov-15 06:00N 34°14' E 134°59'22810.1
2017-Nov-14 07:29N 35°02' E 139°30'612.4
2017-Nov-14 07:00N 35°05' E 139°37'612.6
2017-Nov-14 06:30N 35°08' E 139°43'613.0
2017-Nov-14 06:00N 35°14' E 139°46'713.1
2017-Nov-14 05:30N 35°20' E 139°42'612.2
2017-Nov-14 05:00N 35°26' E 139°45'713.1
2017-Nov-14 04:30N 35°30' E 139°52'6 1.1
2017-Nov-13 23:16N 35°31' E 139°58'312.2
2017-Nov-13 23:00N 35°29' E 139°56'1 2.5
2017-Nov-13 22:28N 35°28' E 139°54'0 0.0
2017-Nov-13 21:46N 35°28' E 139°54'  
2017-Nov-10 08:03N 34°53' E 139°49'113.4
2017-Nov-10 07:59N 34°53' E 139°48'713.9
2017-Nov-10 07:30N 34°59' E 139°44'713.7
2017-Nov-10 07:00N 35°05' E 139°45'713.5
2017-Nov-10 06:30N 35°12' E 139°46'612.7
2017-Nov-10 06:00N 35°18' E 139°44'612.1
2017-Nov-10 05:30N 35°24' E 139°43'713.0
2017-Nov-10 05:00N 35°28' E 139°49'7 1.1
2017-Nov-09 22:16N 35°30' E 139°58'2 9.2
2017-Nov-09 22:01N 35°29' E 139°55'0 0.1
2017-Nov-09 21:22N 35°28' E 139°55'0 0.1
2017-Nov-09 20:58N 35°28' E 139°55'0 0.0
2017-Nov-09 20:19N 35°28' E 139°55'0 0.0
2017-Nov-09 19:55N 35°28' E 139°55'0 0.0
2017-Nov-09 19:25N 35°28' E 139°55'0 0.1
2017-Nov-09 18:52N 35°28' E 139°55'0 0.0
2017-Nov-09 17:25N 35°28' E 139°55'0 0.0
2017-Nov-09 14:19N 35°28' E 139°55'0 0.0
2017-Nov-09 13:55N 35°28' E 139°55'0 0.0
2017-Nov-09 13:25N 35°28' E 139°55'0 0.0
2017-Nov-09 12:55N 35°28' E 139°55'0 0.0
2017-Nov-09 12:28N 35°28' E 139°55'0 0.0
2017-Nov-09 11:58N 35°28' E 139°55'0 0.0
2017-Nov-09 11:25N 35°28' E 139°55'0 0.0
2017-Nov-09 10:46N 35°28' E 139°55'0 0.0
2017-Nov-09 10:28N 35°28' E 139°55'0 0.1
2017-Nov-09 09:58N 35°28' E 139°55'0 0.0
2017-Nov-09 09:25N 35°28' E 139°55'  
Track history (hours):
 
Tides and Currents Weather Stations Pressure Air Temp Water Temp Dewpoint Dewpoint Depression Visibility Wind Speed Wind Dir Waves Ship Positions

Puropanmaru No.3

Last reported at 2017-Nov-19 08:51 UTC. Time now 2017-Nov-21 19:23 UTC.
Position N 35°01' E 139°28'.

Length 68 m; draft 4.5 m.

Type: Tanker. MMSI: 431003365.

Date/timePositionNaut miles runAvg speedWind from/ knotsBaromVisibWave heightAir tempDewpointWater temp
2017-Nov-19 08:51N 35°01' E 139°28'411.8
2017-Nov-19 08:30N 35°03' E 139°32'612.2
2017-Nov-19 08:00N 35°06' E 139°39'612.3
2017-Nov-19 07:30N 35°10' E 139°44'612.2
2017-Nov-19 07:00N 35°16' E 139°46'612.2
2017-Nov-19 06:30N 35°22' E 139°42'611.5
2017-Nov-19 06:00N 35°26' E 139°46'612.9
2017-Nov-19 05:30N 35°30' E 139°53'7 1.3
2017-Nov-18 23:58N 35°32' E 140°01'510.8
2017-Nov-18 23:30N 35°29' E 139°56'1 2.8
2017-Nov-18 23:00N 35°28' E 139°55'0 0.0
2017-Nov-18 21:53N 35°28' E 139°55'0 0.0
2017-Nov-18 21:23N 35°28' E 139°55'0 0.0
2017-Nov-18 21:00N 35°28' E 139°55'0 0.1
2017-Nov-18 20:30N 35°28' E 139°55'0 0.1
2017-Nov-18 19:56N 35°28' E 139°55'0 0.1
2017-Nov-18 19:30N 35°28' E 139°55'0 0.0
2017-Nov-18 19:00N 35°28' E 139°55'0 0.0
2017-Nov-18 18:29N 35°28' E 139°55'0 0.0
2017-Nov-18 17:59N 35°28' E 139°55'0 0.0
2017-Nov-18 17:27N 35°28' E 139°55'0 0.0
2017-Nov-18 16:59N 35°28' E 139°55'0 0.0
2017-Nov-18 16:29N 35°28' E 139°55'0 0.0
2017-Nov-18 15:56N 35°28' E 139°55'0 0.0
2017-Nov-18 15:26N 35°28' E 139°55'0 0.0
2017-Nov-18 14:59N 35°28' E 139°55'0 0.0
2017-Nov-18 14:23N 35°28' E 139°55'0 0.0
2017-Nov-18 13:56N 35°28' E 139°55'0 0.2
2017-Nov-18 13:26N 35°28' E 139°55'0 0.0
2017-Nov-18 12:20N 35°28' E 139°55'0 0.0
2017-Nov-18 11:56N 35°28' E 139°55'0 0.0
2017-Nov-18 11:29N 35°28' E 139°55'0 0.0
2017-Nov-18 10:56N 35°28' E 139°55'0 0.0
2017-Nov-18 10:29N 35°28' E 139°55'0 0.0
2017-Nov-18 09:59N 35°28' E 139°55'0 0.0
2017-Nov-18 09:20N 35°28' E 139°55'0 0.0
2017-Nov-18 08:45N 35°28' E 139°55'2 8.5
2017-Nov-18 08:27N 35°28' E 139°52'613.3
2017-Nov-18 08:00N 35°24' E 139°46'612.5
2017-Nov-18 07:30N 35°18' E 139°45'612.5
2017-Nov-18 07:00N 35°12' E 139°47'713.0
2017-Nov-18 06:30N 35°06' E 139°43'612.9
2017-Nov-18 06:00N 35°02' E 139°37'713.4
2017-Nov-18 05:30N 34°58' E 139°31'222 5.2
2017-Nov-16 10:36N 34°37' E 135°01'215.6
2017-Nov-16 10:29N 34°36' E 135°03'21 0.7
2017-Nov-15 06:07N 34°15' E 134°59'111.8
2017-Nov-15 06:00N 34°14' E 134°59'22810.1
2017-Nov-14 07:29N 35°02' E 139°30'612.4
2017-Nov-14 07:00N 35°05' E 139°37'612.6
2017-Nov-14 06:30N 35°08' E 139°43'613.0
2017-Nov-14 06:00N 35°14' E 139°46'713.1
2017-Nov-14 05:30N 35°20' E 139°42'612.2
2017-Nov-14 05:00N 35°26' E 139°45'713.1
2017-Nov-14 04:30N 35°30' E 139°52'6 1.1
2017-Nov-13 23:16N 35°31' E 139°58'312.2
2017-Nov-13 23:00N 35°29' E 139°56'1 2.5
2017-Nov-13 22:28N 35°28' E 139°54'0 0.0
2017-Nov-13 21:46N 35°28' E 139°54'  
2017-Nov-10 08:03N 34°53' E 139°49'113.4
2017-Nov-10 07:59N 34°53' E 139°48'713.9
2017-Nov-10 07:30N 34°59' E 139°44'713.7
2017-Nov-10 07:00N 35°05' E 139°45'713.5
2017-Nov-10 06:30N 35°12' E 139°46'612.7
2017-Nov-10 06:00N 35°18' E 139°44'612.1
2017-Nov-10 05:30N 35°24' E 139°43'713.0
2017-Nov-10 05:00N 35°28' E 139°49'7 1.1
2017-Nov-09 22:16N 35°30' E 139°58'2 9.2
2017-Nov-09 22:01N 35°29' E 139°55'0 0.1
2017-Nov-09 21:22N 35°28' E 139°55'0 0.1
2017-Nov-09 20:58N 35°28' E 139°55'0 0.0
2017-Nov-09 20:19N 35°28' E 139°55'0 0.0
2017-Nov-09 19:55N 35°28' E 139°55'0 0.0
2017-Nov-09 19:25N 35°28' E 139°55'0 0.1
2017-Nov-09 18:52N 35°28' E 139°55'0 0.0
2017-Nov-09 17:25N 35°28' E 139°55'0 0.0
2017-Nov-09 14:19N 35°28' E 139°55'0 0.0
2017-Nov-09 13:55N 35°28' E 139°55'0 0.0
2017-Nov-09 13:25N 35°28' E 139°55'0 0.0
2017-Nov-09 12:55N 35°28' E 139°55'0 0.0
2017-Nov-09 12:28N 35°28' E 139°55'0 0.0
2017-Nov-09 11:58N 35°28' E 139°55'0 0.0
2017-Nov-09 11:25N 35°28' E 139°55'0 0.0
2017-Nov-09 10:46N 35°28' E 139°55'0 0.0
2017-Nov-09 10:28N 35°28' E 139°55'0 0.1
2017-Nov-09 09:58N 35°28' E 139°55'0 0.0
2017-Nov-09 09:25N 35°28' E 139°55'  

Dump ship's entire track history